罗盘
风向 的 风向 的 风向 到 风向 250°
风: 6 kt, 2 beaufort

添加一条跑道以查看侧风和逆风信息。

添置 跑道
0 1.000 2.000 3.000 4.000 5.000
CAVOK
METAR LFMK 252130Z AUTO 25006KT 220V290 CAVOK 14/10 Q1016

METAR Altisurface de Balesta Nature - FR-0249

Altisurface de Balesta Nature是Roquefort-sur-Garonne,法国中的小机场。 视场标高为1.394 ft。 该领域的国际民航组织标志是FR-0249.

这份报告是针对2022年9月25日 23:30, 当地时间在Carcassonne Airport进行的。

机场观察

风向为250°,速度为6 kt。 风向在220°和290°之间变化。

天气为CAVOK。这意味着在5.000 ft或MSA(最低安全高度)以下(以较高者为准)以下没有云。这也意味着没有观测到积雨云或高耸的积云,可见度为10 km 或者更多或更高。此外,不会有雾,降雨或其他重要天气。

温度和风寒是14 °C。 露点为10 °C,相对湿度为77%。 海平面上的气压为1016 hPa (QNH)。

白天

今天,太阳从07:46升起,在19:48降落。 这适用于Altisurface de Balesta Nature,世界夏令时可能有所不同。 当地时间与世界标准时间之间的时差为+2 小时。 夏令时目前正在进行中。

公司介绍

我们没有关于这个机场的公司信息。

体会

到Vliegles.nl去找飞行课程,跳伞和其他飞行体验。 浏览页面,了解Altisurface de Balesta Nature附近所有可用的活动。 你也可以使用搜索功能来寻找你所在地附近的特定飞行课程、跳伞或其他飞行体验。

温度 & 天气

温度 14 °C
露点 10 °C
相对湿度 77%
Kp-index 0  

白天

日出
07:41
中午
13:42
日落
19:43

小工具

你想在你的网站上有一个关于Altisurface de Balesta Nature的当前航空天气(METAR)的小部件吗?

</> 显示HTML代码

我们和第三方通过cookies跟踪您在我们网站上的上网行为。如果您继续,我们认为您同意我们的cookie政策。 了解更多